Time;durP1;ratioP1;P1;durP2;ratioP2;P2;SDS_P1;SDS_P2;PMS_P1;PMS_P2;Temp;Humidity;BMP_temperature;BMP_pressure;BME280_temperature;BME280_humidity;BME280_pressure;Samples;Min_cycle;Max_cycle;Signal;HPM_P1;HPM_P2
2024/03/29 00:00:44;;;;;;;2.78;2.30;;;;;;;;;;5106827;28;20400;-81
2024/03/29 00:03:10;;;;;;;2.60;2.30;;;;;;;;;;5104822;28;21188;-81
2024/03/29 00:05:36;;;;;;;3.05;1.90;;;;;;;;;;5098371;28;20370;-81
2024/03/29 00:08:02;;;;;;;2.97;2.30;;;;;;;;;;5098176;28;20377;-81
2024/03/29 00:10:28;;;;;;;2.40;2.10;;;;;;;;;;5098607;28;20394;-81
2024/03/29 00:12:54;;;;;;;2.63;2.00;;;;;;;;;;5098826;28;20994;-81
2024/03/29 00:15:20;;;;;;;3.13;1.70;;;;;;;;;;5098621;28;20425;-81
2024/03/29 00:17:46;;;;;;;2.67;2.00;;;;;;;;;;5098380;28;20535;-81
2024/03/29 00:20:12;;;;;;;2.80;2.50;;;;;;;;;;5097821;28;20409;-81
2024/03/29 00:22:38;;;;;;;4.07;2.47;;;;;;;;;;5098808;28;20882;-80
2024/03/29 00:25:05;;;;;;;3.97;2.70;;;;;;;;;;5098309;28;20378;-81
2024/03/29 00:27:32;;;;;;;2.92;1.92;;;;;;;;;;5097648;28;20378;-81
2024/03/29 00:29:58;;;;;;;1.92;1.63;;;;;;;;;;5098270;28;20393;-81
2024/03/29 00:32:24;;;;;;;4.63;2.00;;;;;;;;;;5097470;28;20460;-81
2024/03/29 00:34:50;;;;;;;2.88;1.83;;;;;;;;;;5098972;28;20420;-81
2024/03/29 00:37:17;;;;;;;2.10;1.70;;;;;;;;;;5098794;28;20486;-81
2024/03/29 00:39:43;;;;;;;1.90;1.42;;;;;;;;;;5099096;28;20371;-81
2024/03/29 00:42:15;;;;;;;5.93;2.60;;;;;;;;;;5097829;28;20458;-81
2024/03/29 00:44:41;;;;;;;2.92;2.30;;;;;;;;;;5100430;28;20402;-81
2024/03/29 00:47:07;;;;;;;2.10;1.90;;;;;;;;;;5119166;28;20849;-81
2024/03/29 00:49:33;;;;;;;2.42;1.80;;;;;;;;;;5103706;28;20378;-81
2024/03/29 00:51:59;;;;;;;3.00;1.77;;;;;;;;;;5104326;28;20380;-81
2024/03/29 00:54:25;;;;;;;2.88;1.60;;;;;;;;;;5106478;28;20428;-80
2024/03/29 00:56:51;;;;;;;2.17;1.83;;;;;;;;;;5098435;28;20386;-81
2024/03/29 00:59:17;;;;;;;1.80;1.70;;;;;;;;;;5098363;28;20386;-81
2024/03/29 01:01:44;;;;;;;1.80;1.25;;;;;;;;;;5098401;28;20496;-81
2024/03/29 01:04:10;;;;;;;2.67;1.65;;;;;;;;;;5098830;28;20406;-81
2024/03/29 01:06:36;;;;;;;2.55;1.77;;;;;;;;;;5098242;28;20389;-81
2024/03/29 01:09:03;;;;;;;2.17;1.98;;;;;;;;;;5098483;28;20366;-81
2024/03/29 01:11:29;;;;;;;2.03;1.52;;;;;;;;;;5098698;28;20371;-81
2024/03/29 01:13:55;;;;;;;1.53;1.43;;;;;;;;;;5098850;28;20935;-81
2024/03/29 01:16:20;;;;;;;2.17;1.77;;;;;;;;;;5098365;28;20469;-80
2024/03/29 01:18:46;;;;;;;1.95;1.58;;;;;;;;;;5097393;28;20856;-81
2024/03/29 01:21:13;;;;;;;4.23;1.90;;;;;;;;;;5097780;28;20487;-81
2024/03/29 01:23:39;;;;;;;2.40;2.17;;;;;;;;;;5112699;28;20381;-81
2024/03/29 01:26:05;;;;;;;2.50;2.30;;;;;;;;;;5111242;28;20370;-81
2024/03/29 01:28:31;;;;;;;3.25;2.75;;;;;;;;;;5097960;28;20370;-81
2024/03/29 01:30:58;;;;;;;3.45;3.15;;;;;;;;;;5111493;28;20386;-81
2024/03/29 01:33:24;;;;;;;3.30;3.00;;;;;;;;;;5098005;28;20390;-81
2024/03/29 01:35:50;;;;;;;2.20;2.00;;;;;;;;;;5097799;28;20421;-80
2024/03/29 01:38:16;;;;;;;3.40;2.00;;;;;;;;;;5098215;28;20801;-81
2024/03/29 01:40:43;;;;;;;2.25;2.05;;;;;;;;;;5095715;28;20417;-81
2024/03/29 01:43:09;;;;;;;2.50;1.90;;;;;;;;;;5097594;28;20511;-81
2024/03/29 01:45:39;;;;;;;2.47;1.87;;;;;;;;;;5107374;28;20803;-81
2024/03/29 01:48:06;;;;;;;2.35;2.15;;;;;;;;;;5101172;28;20389;-81
2024/03/29 01:50:32;;;;;;;1.33;1.13;;;;;;;;;;5097313;28;20402;-81
2024/03/29 01:52:58;;;;;;;2.20;1.40;;;;;;;;;;5097087;28;20374;-81
2024/03/29 01:55:24;;;;;;;1.95;1.42;;;;;;;;;;5097151;28;20433;-81
2024/03/29 01:57:51;;;;;;;1.77;1.33;;;;;;;;;;5097010;28;20397;-81
2024/03/29 02:00:17;;;;;;;1.77;1.30;;;;;;;;;;5096978;28;20763;-80
2024/03/29 02:02:43;;;;;;;1.80;1.15;;;;;;;;;;5096479;28;20472;-81
2024/03/29 02:05:09;;;;;;;1.80;1.52;;;;;;;;;;5096583;28;20369;-80
2024/03/29 02:07:36;;;;;;;2.40;2.00;;;;;;;;;;5096380;28;20385;-81
2024/03/29 02:10:02;;;;;;;2.10;1.80;;;;;;;;;;5095794;28;20374;-80
2024/03/29 02:12:28;;;;;;;2.65;2.30;;;;;;;;;;5096800;28;20382;-80
2024/03/29 02:14:54;;;;;;;1.83;1.50;;;;;;;;;;5097296;28;20465;-80
2024/03/29 02:17:20;;;;;;;1.95;1.48;;;;;;;;;;5096703;28;20382;-80
2024/03/29 02:19:46;;;;;;;1.47;1.30;;;;;;;;;;5096814;28;20382;-81
2024/03/29 02:22:15;;;;;;;2.00;1.33;;;;;;;;;;5096347;28;20497;-81
2024/03/29 02:24:41;;;;;;;1.90;1.50;;;;;;;;;;5096544;28;20397;-80
2024/03/29 02:27:07;;;;;;;2.80;1.60;;;;;;;;;;5095731;28;20386;-81
2024/03/29 02:29:33;;;;;;;2.10;1.50;;;;;;;;;;5077149;28;20409;-80
2024/03/29 02:31:59;;;;;;;1.88;1.67;;;;;;;;;;5083311;28;20919;-80
2024/03/29 02:34:25;;;;;;;2.37;1.63;;;;;;;;;;5093619;28;20389;-81
2024/03/29 02:36:51;;;;;;;2.00;1.52;;;;;;;;;;5093257;28;20404;-81
2024/03/29 02:39:17;;;;;;;2.17;1.30;;;;;;;;;;5098990;28;20713;-81
2024/03/29 02:41:44;;;;;;;2.07;1.47;;;;;;;;;;5095136;28;20508;-81
2024/03/29 02:44:10;;;;;;;2.07;1.47;;;;;;;;;;5111832;28;20376;-80
2024/03/29 02:46:36;;;;;;;2.38;1.40;;;;;;;;;;5099941;28;20385;-81
2024/03/29 02:49:03;;;;;;;1.40;1.30;;;;;;;;;;5100090;28;20400;-81
2024/03/29 02:51:29;;;;;;;1.48;1.38;;;;;;;;;;5100354;28;20378;-81
2024/03/29 02:53:55;;;;;;;2.25;1.40;;;;;;;;;;5100668;28;20872;-81
2024/03/29 02:56:21;;;;;;;1.70;1.40;;;;;;;;;;5104306;28;20389;-80
2024/03/29 02:58:47;;;;;;;1.40;1.30;;;;;;;;;;5099820;28;20392;-81
2024/03/29 03:01:13;;;;;;;2.25;1.48;;;;;;;;;;5100750;28;20455;-81
2024/03/29 03:03:39;;;;;;;1.50;1.30;;;;;;;;;;5100750;28;20396;-80
2024/03/29 03:06:05;;;;;;;1.33;1.23;;;;;;;;;;5100617;28;20782;-81
2024/03/29 03:11:16;;;;;;;1.52;1.23;;;;;;;;;;5100295;28;20847;-81
2024/03/29 03:13:42;;;;;;;1.50;1.35;;;;;;;;;;5100489;28;20386;-81
2024/03/29 03:16:08;;;;;;;1.20;1.10;;;;;;;;;;5100028;28;20947;-81
2024/03/29 03:18:34;;;;;;;3.35;1.25;;;;;;;;;;5099265;28;20382;-81
2024/03/29 03:21:00;;;;;;;1.52;1.10;;;;;;;;;;5099176;28;20427;-80
2024/03/29 03:23:27;;;;;;;2.60;1.30;;;;;;;;;;5100134;28;20381;-81
2024/03/29 03:25:57;;;;;;;1.92;1.35;;;;;;;;;;5099694;28;20836;-81
2024/03/29 03:28:23;;;;;;;1.98;1.20;;;;;;;;;;5099623;28;20370;-81
2024/03/29 03:30:52;;;;;;;1.17;0.88;;;;;;;;;;5099593;28;20473;-81
2024/03/29 03:33:18;;;;;;;1.42;1.05;;;;;;;;;;5099467;28;20405;-80
2024/03/29 03:35:45;;;;;;;1.17;1.02;;;;;;;;;;5100223;28;20443;-81
2024/03/29 03:38:11;;;;;;;1.30;1.20;;;;;;;;;;5099301;28;20429;-81
2024/03/29 03:40:37;;;;;;;1.40;1.10;;;;;;;;;;5099200;28;20402;-81
2024/03/29 03:43:04;;;;;;;1.20;0.90;;;;;;;;;;5097012;28;20457;-81
2024/03/29 03:45:34;;;;;;;1.25;0.95;;;;;;;;;;5098967;28;20378;-81
2024/03/29 03:48:00;;;;;;;1.17;1.00;;;;;;;;;;5099283;28;20444;-81
2024/03/29 03:50:26;;;;;;;1.10;0.90;;;;;;;;;;5098950;28;20385;-81
2024/03/29 03:52:52;;;;;;;0.85;0.70;;;;;;;;;;5099190;28;20386;-81
2024/03/29 03:55:18;;;;;;;0.60;0.60;;;;;;;;;;5098704;28;20386;-81
2024/03/29 03:57:44;;;;;;;0.80;0.80;;;;;;;;;;5098894;28;20843;-81
2024/03/29 04:00:10;;;;;;;1.40;0.95;;;;;;;;;;5098762;28;20400;-81
2024/03/29 04:02:36;;;;;;;1.23;1.00;;;;;;;;;;5098965;28;20389;-81
2024/03/29 04:05:02;;;;;;;0.85;0.85;;;;;;;;;;5099137;28;20378;-81
2024/03/29 04:07:28;;;;;;;1.00;0.90;;;;;;;;;;5099207;28;20922;-81
2024/03/29 04:09:54;;;;;;;1.30;1.17;;;;;;;;;;5098873;28;20389;-81
2024/03/29 04:12:20;;;;;;;1.38;1.20;;;;;;;;;;5098865;28;20414;-81
2024/03/29 04:14:46;;;;;;;1.33;1.20;;;;;;;;;;5099076;28;20378;-81
2024/03/29 04:17:12;;;;;;;1.38;1.10;;;;;;;;;;5099093;28;20381;-81
2024/03/29 04:19:38;;;;;;;1.63;1.17;;;;;;;;;;5098363;28;20393;-81
2024/03/29 04:22:04;;;;;;;1.10;1.00;;;;;;;;;;5097978;28;20410;-81
2024/03/29 04:24:30;;;;;;;1.10;0.90;;;;;;;;;;5098039;28;20370;-81
2024/03/29 04:26:56;;;;;;;1.00;0.90;;;;;;;;;;5098284;28;20370;-81
2024/03/29 04:29:22;;;;;;;0.90;0.80;;;;;;;;;;5097980;28;20454;-81
2024/03/29 04:31:48;;;;;;;1.20;0.95;;;;;;;;;;5097238;28;20390;-81
2024/03/29 04:34:14;;;;;;;1.15;0.98;;;;;;;;;;5098035;28;20469;-81
2024/03/29 04:36:40;;;;;;;0.80;0.80;;;;;;;;;;5098157;28;20382;-81
2024/03/29 04:39:06;;;;;;;1.10;1.00;;;;;;;;;;5098434;28;20774;-81
2024/03/29 04:41:34;;;;;;;1.00;0.82;;;;;;;;;;5097846;28;20740;-81
2024/03/29 04:44:04;;;;;;;1.08;0.80;;;;;;;;;;5097144;28;20374;-81
2024/03/29 04:46:30;;;;;;;1.08;0.98;;;;;;;;;;5094753;28;20434;-81
2024/03/29 04:48:56;;;;;;;1.10;1.00;;;;;;;;;;5098308;28;20461;-81
2024/03/29 04:51:22;;;;;;;3.13;1.00;;;;;;;;;;5098026;28;20895;-81
2024/03/29 04:53:48;;;;;;;1.10;1.00;;;;;;;;;;5097973;28;20384;-81
2024/03/29 04:56:14;;;;;;;1.73;1.10;;;;;;;;;;5097636;28;20435;-81
2024/03/29 04:58:40;;;;;;;1.38;1.08;;;;;;;;;;5096968;28;20389;-81
2024/03/29 05:01:07;;;;;;;1.10;1.00;;;;;;;;;;5097348;28;20420;-81
2024/03/29 05:03:33;;;;;;;1.65;1.08;;;;;;;;;;5097769;28;20386;-81
2024/03/29 05:05:59;;;;;;;2.17;1.00;;;;;;;;;;5095319;28;20371;-80
2024/03/29 05:08:25;;;;;;;0.80;0.80;;;;;;;;;;5092022;28;20406;-81
2024/03/29 05:10:51;;;;;;;1.73;1.13;;;;;;;;;;5104572;28;20433;-81
2024/03/29 05:13:18;;;;;;;2.03;1.90;;;;;;;;;;5095740;28;20394;-80
2024/03/29 05:15:44;;;;;;;1.50;1.20;;;;;;;;;;5114539;28;20383;-81
2024/03/29 05:18:10;;;;;;;1.95;1.50;;;;;;;;;;5115531;28;20433;-80
2024/03/29 05:20:36;;;;;;;1.80;1.70;;;;;;;;;;5113618;28;20404;-80
2024/03/29 05:23:03;;;;;;;1.92;1.73;;;;;;;;;;5115224;28;20372;-81
2024/03/29 05:25:29;;;;;;;2.38;1.60;;;;;;;;;;5113843;28;20397;-81
2024/03/29 05:27:55;;;;;;;1.50;1.40;;;;;;;;;;5115772;28;20368;-81
2024/03/29 05:30:21;;;;;;;2.10;1.43;;;;;;;;;;5114167;28;20376;-81
2024/03/29 05:32:47;;;;;;;2.30;2.10;;;;;;;;;;5107344;28;20405;-81
2024/03/29 05:35:13;;;;;;;2.83;2.63;;;;;;;;;;5115668;28;20377;-81
2024/03/29 05:37:39;;;;;;;2.30;2.10;;;;;;;;;;5113606;28;20860;-81
2024/03/29 05:40:07;;;;;;;2.38;2.00;;;;;;;;;;5115967;28;20380;-81
2024/03/29 05:42:35;;;;;;;1.40;1.30;;;;;;;;;;5114718;28;20370;-81
2024/03/29 05:45:01;;;;;;;1.67;1.40;;;;;;;;;;5112051;28;20385;-81
2024/03/29 05:47:27;;;;;;;1.48;1.20;;;;;;;;;;5096250;28;20502;-81
2024/03/29 05:49:54;;;;;;;1.48;0.98;;;;;;;;;;5097835;28;20476;-81
2024/03/29 05:52:23;;;;;;;2.33;1.00;;;;;;;;;;5097809;28;20450;-81
2024/03/29 05:54:50;;;;;;;1.10;0.90;;;;;;;;;;5097244;28;20378;-81
2024/03/29 05:57:16;;;;;;;1.60;0.82;;;;;;;;;;5096651;28;20735;-81
2024/03/29 05:59:42;;;;;;;0.70;0.70;;;;;;;;;;5097267;28;20413;-81
2024/03/29 06:02:08;;;;;;;0.82;0.65;;;;;;;;;;5096912;28;20405;-81
2024/03/29 06:04:35;;;;;;;0.70;0.70;;;;;;;;;;5097033;28;20408;-81
2024/03/29 06:07:01;;;;;;;1.08;1.00;;;;;;;;;;5095597;28;20386;-80
2024/03/29 06:09:27;;;;;;;1.95;1.17;;;;;;;;;;5095510;28;20378;-81
2024/03/29 06:11:54;;;;;;;1.35;1.15;;;;;;;;;;5095944;28;20378;-81
2024/03/29 06:17:23;;;;;;;1.40;1.10;;;;;;;;;;5088515;28;20522;-81
2024/03/29 06:19:57;;;;;;;2.22;1.20;;;;;;;;;;5096203;28;20441;-81
2024/03/29 06:22:23;;;;;;;1.33;0.90;;;;;;;;;;5095638;28;20448;-81
2024/03/29 06:24:51;;;;;;;1.50;1.10;;;;;;;;;;5096588;28;20924;-81
2024/03/29 06:27:17;;;;;;;0.93;0.77;;;;;;;;;;5094743;28;20382;-81
2024/03/29 06:29:44;;;;;;;1.55;1.00;;;;;;;;;;5094939;28;20374;-81
2024/03/29 06:32:10;;;;;;;1.65;1.00;;;;;;;;;;5094561;28;20409;-81
2024/03/29 06:34:36;;;;;;;0.80;0.80;;;;;;;;;;5095068;28;20746;-81
2024/03/29 06:37:03;;;;;;;1.70;0.90;;;;;;;;;;5094217;28;20380;-81
2024/03/29 06:39:28;;;;;;;1.13;0.77;;;;;;;;;;5093746;28;20382;-82
2024/03/29 06:41:55;;;;;;;0.95;0.75;;;;;;;;;;5094165;28;20414;-82
2024/03/29 06:44:20;;;;;;;1.25;0.70;;;;;;;;;;5076415;28;20370;-81
2024/03/29 06:46:47;;;;;;;1.25;0.73;;;;;;;;;;5094152;28;20713;-81
2024/03/29 06:49:13;;;;;;;1.20;0.70;;;;;;;;;;5094424;28;20378;-81
2024/03/29 06:51:42;;;;;;;1.10;0.70;;;;;;;;;;5093572;28;20374;-81
2024/03/29 06:54:08;;;;;;;2.78;0.90;;;;;;;;;;5095571;28;20739;-81
2024/03/29 06:56:34;;;;;;;0.88;0.70;;;;;;;;;;5093541;28;20381;-81
2024/03/29 06:59:00;;;;;;;1.17;0.80;;;;;;;;;;5093541;28;20370;-81
2024/03/29 07:01:26;;;;;;;0.60;0.60;;;;;;;;;;5093566;28;20435;-81
2024/03/29 07:03:52;;;;;;;0.55;0.55;;;;;;;;;;5093687;28;20402;-82
2024/03/29 07:06:18;;;;;;;0.70;0.70;;;;;;;;;;5093163;28;20701;-81
2024/03/29 07:08:45;;;;;;;0.85;0.57;;;;;;;;;;5093557;28;20382;-81
2024/03/29 07:11:11;;;;;;;1.30;0.60;;;;;;;;;;5093352;28;20389;-82
2024/03/29 07:13:37;;;;;;;0.80;0.60;;;;;;;;;;5093359;28;20823;-81
2024/03/29 07:16:04;;;;;;;0.77;0.68;;;;;;;;;;5093407;28;20393;-82
2024/03/29 07:18:30;;;;;;;0.65;0.50;;;;;;;;;;5093341;28;20386;-82
2024/03/29 07:20:56;;;;;;;1.00;0.88;;;;;;;;;;5087611;28;20406;-81
2024/03/29 07:23:22;;;;;;;1.25;0.70;;;;;;;;;;5094504;28;20366;-81
2024/03/29 07:25:58;;;;;;;1.15;0.80;;;;;;;;;;5093786;28;20382;-81
2024/03/29 07:28:24;;;;;;;0.70;0.70;;;;;;;;;;5094933;28;20377;-81
2024/03/29 07:30:50;;;;;;;0.70;0.70;;;;;;;;;;5098328;28;20385;-81
2024/03/29 07:33:16;;;;;;;0.60;0.53;;;;;;;;;;5098388;28;20417;-81
2024/03/29 07:35:42;;;;;;;0.90;0.60;;;;;;;;;;5098558;28;20386;-81
2024/03/29 07:38:09;;;;;;;1.10;0.60;;;;;;;;;;5098203;28;20459;-81
2024/03/29 07:40:35;;;;;;;0.75;0.60;;;;;;;;;;5100696;28;20409;-81
2024/03/29 07:43:03;;;;;;;1.13;0.60;;;;;;;;;;5098361;28;20381;-81
2024/03/29 07:45:29;;;;;;;0.38;0.38;;;;;;;;;;5098270;28;20377;-81
2024/03/29 07:47:55;;;;;;;1.07;0.50;;;;;;;;;;5098650;28;20374;-81
2024/03/29 07:50:21;;;;;;;0.90;0.50;;;;;;;;;;5098724;28;20381;-81
2024/03/29 07:52:47;;;;;;;0.93;0.70;;;;;;;;;;5099350;28;20374;-81
2024/03/29 07:55:13;;;;;;;0.93;0.68;;;;;;;;;;5099780;28;20370;-81
2024/03/29 07:57:39;;;;;;;0.98;0.70;;;;;;;;;;5098385;28;20390;-81
2024/03/29 08:00:06;;;;;;;1.48;0.68;;;;;;;;;;5098229;28;20381;-81
2024/03/29 08:02:35;;;;;;;9.73;1.25;;;;;;;;;;5097645;28;20493;-81
2024/03/29 08:05:01;;;;;;;3.00;0.63;;;;;;;;;;5098575;28;20406;-80
2024/03/29 08:07:27;;;;;;;1.55;0.80;;;;;;;;;;5099247;28;20605;-82
2024/03/29 08:09:53;;;;;;;1.08;0.90;;;;;;;;;;5094172;28;20423;-80
2024/03/29 08:12:19;;;;;;;0.80;0.63;;;;;;;;;;5094049;28;20395;-80
2024/03/29 08:14:46;;;;;;;1.23;0.70;;;;;;;;;;5100345;28;20436;-80
2024/03/29 08:17:12;;;;;;;1.17;0.70;;;;;;;;;;5091140;28;20385;-80
2024/03/29 08:19:41;;;;;;;0.80;0.80;;;;;;;;;;5100472;28;20374;-80
2024/03/29 08:22:10;;;;;;;2.10;0.90;;;;;;;;;;5098047;28;20760;-80
2024/03/29 08:24:36;;;;;;;0.80;0.70;;;;;;;;;;5103754;28;20374;-80
2024/03/29 08:27:02;;;;;;;0.95;0.73;;;;;;;;;;5101937;28;20401;-81
2024/03/29 08:29:28;;;;;;;0.80;0.80;;;;;;;;;;5105063;28;20943;-80
2024/03/29 08:31:54;;;;;;;0.90;0.82;;;;;;;;;;5100600;28;20863;-81
2024/03/29 08:34:20;;;;;;;1.55;0.90;;;;;;;;;;5105202;28;20764;-80
2024/03/29 08:36:47;;;;;;;0.82;0.68;;;;;;;;;;5098790;28;20453;-80
2024/03/29 08:39:13;;;;;;;1.00;0.70;;;;;;;;;;5099615;28;20506;-80
2024/03/29 08:41:39;;;;;;;1.08;0.70;;;;;;;;;;5102317;28;20406;-80
2024/03/29 08:44:05;;;;;;;1.23;0.70;;;;;;;;;;5101314;28;20397;-81
2024/03/29 08:46:31;;;;;;;1.33;0.70;;;;;;;;;;5099395;28;20408;-80
2024/03/29 08:48:57;;;;;;;1.02;0.80;;;;;;;;;;5096259;28;20386;-80
2024/03/29 08:51:24;;;;;;;1.08;0.60;;;;;;;;;;5096376;28;20836;-81
2024/03/29 08:53:50;;;;;;;0.98;0.70;;;;;;;;;;5096079;28;20389;-81
2024/03/29 08:56:16;;;;;;;1.10;0.80;;;;;;;;;;5096247;28;20396;-81
2024/03/29 08:58:42;;;;;;;0.55;0.55;;;;;;;;;;5095842;28;20378;-81
2024/03/29 09:01:08;;;;;;;0.90;0.70;;;;;;;;;;5095863;28;20463;-81
2024/03/29 09:03:34;;;;;;;0.50;0.50;;;;;;;;;;5095413;28;20382;-81
2024/03/29 09:06:00;;;;;;;0.57;0.50;;;;;;;;;;5095845;28;20402;-81
2024/03/29 09:08:26;;;;;;;0.98;0.50;;;;;;;;;;5095871;28;20385;-81
2024/03/29 09:10:52;;;;;;;0.73;0.50;;;;;;;;;;5096150;28;20381;-81
2024/03/29 09:13:18;;;;;;;0.52;0.50;;;;;;;;;;5095864;28;20453;-81
2024/03/29 09:15:44;;;;;;;1.73;0.75;;;;;;;;;;5095574;28;20743;-81
2024/03/29 09:18:17;;;;;;;0.80;0.70;;;;;;;;;;5096317;28;20457;-81
2024/03/29 09:20:43;;;;;;;1.00;0.60;;;;;;;;;;5095847;28;20402;-81
2024/03/29 09:23:09;;;;;;;0.60;0.60;;;;;;;;;;5095519;28;20378;-81
2024/03/29 09:25:39;;;;;;;0.73;0.50;;;;;;;;;;5095818;28;20744;-81
2024/03/29 09:28:06;;;;;;;0.82;0.55;;;;;;;;;;5095607;28;20873;-81
2024/03/29 09:30:32;;;;;;;0.68;0.43;;;;;;;;;;5094690;28;20385;-81
2024/03/29 09:32:58;;;;;;;0.63;0.45;;;;;;;;;;5095282;28;20394;-81
2024/03/29 09:35:24;;;;;;;1.17;0.40;;;;;;;;;;5094882;28;20731;-81
2024/03/29 09:37:50;;;;;;;0.60;0.50;;;;;;;;;;5095442;28;20715;-81
2024/03/29 09:40:17;;;;;;;1.60;0.50;;;;;;;;;;5095546;28;20370;-81
2024/03/29 09:42:44;;;;;;;0.50;0.50;;;;;;;;;;5095772;28;20824;-81
2024/03/29 09:45:11;;;;;;;0.80;0.45;;;;;;;;;;5095793;28;20386;-81
2024/03/29 09:47:39;;;;;;;0.70;0.52;;;;;;;;;;5095194;28;20420;-81
2024/03/29 09:50:06;;;;;;;0.68;0.55;;;;;;;;;;5095222;28;20492;-81
2024/03/29 09:52:32;;;;;;;1.23;0.60;;;;;;;;;;5095436;28;20413;-81
2024/03/29 09:54:59;;;;;;;1.20;0.60;;;;;;;;;;5095310;28;20378;-81
2024/03/29 09:57:29;;;;;;;0.73;0.60;;;;;;;;;;5095364;28;20406;-81
2024/03/29 09:59:55;;;;;;;1.30;0.80;;;;;;;;;;5095171;28;20913;-81
2024/03/29 10:02:23;;;;;;;0.70;0.63;;;;;;;;;;5095703;28;20409;-81
2024/03/29 10:04:50;;;;;;;1.00;0.68;;;;;;;;;;5095962;28;20766;-81
2024/03/29 10:07:17;;;;;;;1.13;0.50;;;;;;;;;;5095647;28;20370;-81
2024/03/29 10:09:46;;;;;;;1.10;0.40;;;;;;;;;;5095164;28;20751;-81
2024/03/29 10:12:12;;;;;;;1.00;0.50;;;;;;;;;;5094799;28;20743;-81
2024/03/29 10:15:24;;;;;;;3.25;0.43;;;;;;;;;;5095282;28;20405;-81
2024/03/29 10:17:45;;;;;;;2.20;0.60;;;;;;;;;;5092119;28;20416;-81
2024/03/29 10:20:11;;;;;;;0.63;0.40;;;;;;;;;;5094638;28;20390;-81
2024/03/29 10:22:46;;;;;;;0.63;0.40;;;;;;;;;;5094763;28;20394;-81
2024/03/29 10:25:16;;;;;;;1.40;0.40;;;;;;;;;;5095241;28;20860;-81
2024/03/29 10:27:42;;;;;;;0.87;0.30;;;;;;;;;;5094959;28;20374;-81
2024/03/29 10:30:09;;;;;;;0.80;0.40;;;;;;;;;;5095789;28;20396;-82
2024/03/29 10:32:37;;;;;;;0.47;0.40;;;;;;;;;;5095323;28;21075;-82
2024/03/29 10:35:04;;;;;;;1.75;0.60;;;;;;;;;;5096177;28;20382;-81
2024/03/29 10:37:33;;;;;;;1.17;0.40;;;;;;;;;;5094024;28;20431;-81
2024/03/29 10:40:01;;;;;;;1.10;0.40;;;;;;;;;;5095889;28;20389;-82
2024/03/29 10:42:27;;;;;;;0.85;0.50;;;;;;;;;;5094959;28;20914;-81
2024/03/29 10:44:53;;;;;;;1.10;0.50;;;;;;;;;;5095111;28;20469;-82
2024/03/29 10:47:23;;;;;;;0.85;0.60;;;;;;;;;;5095640;28;20378;-82
2024/03/29 10:49:51;;;;;;;1.17;0.70;;;;;;;;;;5095150;28;20847;-82
2024/03/29 10:52:18;;;;;;;0.93;0.83;;;;;;;;;;5094650;28;20378;-82
2024/03/29 10:54:47;;;;;;;0.93;0.80;;;;;;;;;;5095218;28;20379;-82
2024/03/29 10:57:26;;;;;;;0.70;0.55;;;;;;;;;;5094360;28;20404;-82
2024/03/29 10:59:58;;;;;;;1.58;0.70;;;;;;;;;;5095187;28;20867;-82
2024/03/29 11:02:36;;;;;;;0.80;0.47;;;;;;;;;;5094858;28;20402;-82
2024/03/29 11:05:05;;;;;;;0.73;0.52;;;;;;;;;;5098353;28;20382;-82
2024/03/29 11:07:34;;;;;;;1.20;0.70;;;;;;;;;;5099016;28;20366;-82
2024/03/29 11:10:02;;;;;;;0.63;0.50;;;;;;;;;;5098934;28;20409;-82
2024/03/29 11:12:31;;;;;;;0.70;0.52;;;;;;;;;;5098473;28;20867;-82
2024/03/29 11:15:06;;;;;;;1.03;0.50;;;;;;;;;;5098558;28;20397;-82
2024/03/29 11:17:32;;;;;;;0.50;0.40;;;;;;;;;;5098471;28;20382;-82
2024/03/29 11:20:00;;;;;;;1.08;0.40;;;;;;;;;;5098277;28;20381;-81
2024/03/29 11:22:26;;;;;;;0.43;0.30;;;;;;;;;;5098413;28;20455;-82
2024/03/29 11:24:52;;;;;;;0.75;0.47;;;;;;;;;;5098592;28;20390;-81
2024/03/29 11:27:22;;;;;;;0.60;0.30;;;;;;;;;;5098251;28;20378;-81
2024/03/29 11:29:50;;;;;;;0.60;0.40;;;;;;;;;;5099042;28;20374;-82
2024/03/29 11:32:16;;;;;;;0.40;0.30;;;;;;;;;;5098108;28;20405;-81
2024/03/29 11:34:45;;;;;;;0.45;0.30;;;;;;;;;;5098306;28;20374;-82
2024/03/29 11:37:13;;;;;;;0.77;0.50;;;;;;;;;;5098663;28;20382;-82
2024/03/29 11:39:40;;;;;;;0.80;0.30;;;;;;;;;;5098048;28;20381;-81
2024/03/29 11:42:06;;;;;;;0.32;0.30;;;;;;;;;;5097684;28;20878;-82
2024/03/29 11:44:32;;;;;;;0.40;0.20;;;;;;;;;;5096363;28;20382;-82
2024/03/29 11:46:59;;;;;;;1.40;0.93;;;;;;;;;;5097810;28;20393;-82
2024/03/29 11:49:25;;;;;;;0.65;0.40;;;;;;;;;;5098083;28;20845;-82
2024/03/29 11:51:51;;;;;;;0.45;0.30;;;;;;;;;;5098064;28;20378;-82
2024/03/29 11:54:17;;;;;;;1.00;0.55;;;;;;;;;;5098059;28;20404;-82
2024/03/29 11:56:44;;;;;;;0.80;0.52;;;;;;;;;;5098463;28;20374;-82
2024/03/29 11:59:10;;;;;;;0.60;0.50;;;;;;;;;;5097808;28;20457;-82
2024/03/29 12:01:39;;;;;;;0.80;0.40;;;;;;;;;;5097815;28;20445;-82
2024/03/29 12:04:05;;;;;;;0.50;0.30;;;;;;;;;;5097657;28;20935;-82
2024/03/29 12:06:31;;;;;;;0.50;0.30;;;;;;;;;;5098357;28;20895;-82
2024/03/29 12:08:58;;;;;;;0.55;0.38;;;;;;;;;;5079621;28;20437;-82
2024/03/29 12:11:27;;;;;;;0.40;0.40;;;;;;;;;;5097877;28;20386;-82
2024/03/29 12:13:53;;;;;;;1.27;0.38;;;;;;;;;;5097691;28;20741;-82
2024/03/29 12:16:19;;;;;;;0.50;0.30;;;;;;;;;;5098105;28;20516;-82
2024/03/29 12:18:48;;;;;;;0.20;0.15;;;;;;;;;;5097338;28;20427;-82
2024/03/29 12:21:16;;;;;;;0.90;0.30;;;;;;;;;;5097331;28;20394;-82
2024/03/29 12:23:48;;;;;;;0.55;0.35;;;;;;;;;;5098162;28;20378;-82
2024/03/29 12:26:14;;;;;;;1.13;0.20;;;;;;;;;;5098014;28;20427;-82
2024/03/29 12:28:40;;;;;;;0.40;0.20;;;;;;;;;;5097394;28;20736;-82
2024/03/29 12:31:09;;;;;;;0.32;0.20;;;;;;;;;;5097277;28;20401;-82
2024/03/29 12:33:35;;;;;;;0.70;0.20;;;;;;;;;;5078903;28;20401;-82
2024/03/29 12:36:02;;;;;;;0.70;0.30;;;;;;;;;;5097113;28;20394;-82
2024/03/29 12:38:29;;;;;;;0.70;0.30;;;;;;;;;;5097254;28;20394;-82
2024/03/29 12:40:55;;;;;;;0.55;0.20;;;;;;;;;;5096570;28;20417;-82
2024/03/29 12:43:23;;;;;;;0.65;0.28;;;;;;;;;;5097032;28;20370;-82
2024/03/29 12:45:49;;;;;;;0.45;0.20;;;;;;;;;;5095092;28;20370;-82
2024/03/29 12:48:16;;;;;;;0.57;0.22;;;;;;;;;;5096277;28;20462;-82
2024/03/29 12:50:43;;;;;;;1.10;0.30;;;;;;;;;;5096840;28;20943;-82
2024/03/29 12:53:11;;;;;;;0.70;0.30;;;;;;;;;;5097191;28;20390;-82
2024/03/29 12:55:39;;;;;;;0.30;0.30;;;;;;;;;;5097215;28;20465;-82
2024/03/29 12:58:07;;;;;;;0.43;0.30;;;;;;;;;;5097051;28;20381;-82
2024/03/29 13:00:33;;;;;;;0.70;0.30;;;;;;;;;;5096454;28;20374;-82
2024/03/29 13:03:00;;;;;;;0.30;0.30;;;;;;;;;;5097091;28;20378;-82
2024/03/29 13:05:27;;;;;;;0.65;0.30;;;;;;;;;;5096795;28;20402;-82
2024/03/29 13:07:54;;;;;;;1.10;0.40;;;;;;;;;;5096173;28;20422;-82
2024/03/29 13:10:20;;;;;;;0.38;0.20;;;;;;;;;;5095370;28;20401;-82
2024/03/29 13:12:49;;;;;;;0.38;0.20;;;;;;;;;;5096827;28;20408;-82
2024/03/29 13:15:19;;;;;;;0.40;0.20;;;;;;;;;;5097113;28;20378;-82
2024/03/29 13:17:46;;;;;;;0.38;0.30;;;;;;;;;;5096588;28;20374;-82
2024/03/29 13:20:12;;;;;;;1.98;0.40;;;;;;;;;;5096298;28;20377;-82
2024/03/29 13:22:41;;;;;;;0.40;0.30;;;;;;;;;;5096725;28;20794;-82
2024/03/29 13:25:09;;;;;;;0.30;0.20;;;;;;;;;;5095461;28;20366;-82
2024/03/29 13:27:36;;;;;;;0.60;0.30;;;;;;;;;;5094763;28;20822;-82
2024/03/29 13:30:02;;;;;;;1.00;0.30;;;;;;;;;;5095293;28;20871;-82
2024/03/29 13:32:32;;;;;;;0.55;0.20;;;;;;;;;;5095490;28;20492;-82
2024/03/29 13:34:58;;;;;;;0.43;0.30;;;;;;;;;;5096380;28;20464;-82
2024/03/29 13:37:26;;;;;;;0.60;0.20;;;;;;;;;;5094982;28;20834;-82
2024/03/29 13:39:52;;;;;;;0.55;0.28;;;;;;;;;;5095760;28;20481;-82
2024/03/29 13:42:19;;;;;;;0.32;0.20;;;;;;;;;;5095932;28;20911;-82
2024/03/29 13:44:46;;;;;;;0.63;0.28;;;;;;;;;;5096563;28;20457;-82
2024/03/29 13:47:16;;;;;;;0.60;0.30;;;;;;;;;;5096469;28;20370;-82
2024/03/29 13:49:42;;;;;;;0.55;0.30;;;;;;;;;;5094434;28;20725;-82
2024/03/29 13:52:08;;;;;;;0.77;0.30;;;;;;;;;;5095624;28;20382;-82
2024/03/29 13:54:34;;;;;;;1.77;0.30;;;;;;;;;;5096614;28;20928;-82
2024/03/29 13:57:06;;;;;;;0.40;0.22;;;;;;;;;;5096132;28;20405;-82
2024/03/29 13:59:33;;;;;;;1.30;0.50;;;;;;;;;;5095717;28;20374;-82
2024/03/29 14:01:59;;;;;;;0.32;0.30;;;;;;;;;;5095675;28;20397;-82
2024/03/29 14:04:25;;;;;;;0.70;0.40;;;;;;;;;;5095643;28;21045;-82
2024/03/29 14:06:51;;;;;;;0.73;0.30;;;;;;;;;;5095054;28;20382;-82
2024/03/29 14:09:17;;;;;;;0.47;0.30;;;;;;;;;;5096005;28;20409;-82
2024/03/29 14:11:44;;;;;;;0.50;0.50;;;;;;;;;;5095521;28;20378;-81
2024/03/29 14:14:11;;;;;;;0.55;0.30;;;;;;;;;;5094946;28;20377;-82
2024/03/29 14:16:37;;;;;;;0.40;0.30;;;;;;;;;;5094865;28;20378;-82
2024/03/29 14:19:04;;;;;;;0.40;0.40;;;;;;;;;;5095648;28;20434;-82
2024/03/29 14:21:30;;;;;;;0.55;0.47;;;;;;;;;;5095719;28;20489;-82
2024/03/29 14:23:59;;;;;;;1.00;0.40;;;;;;;;;;5095879;28;20386;-82
2024/03/29 14:26:25;;;;;;;0.22;0.20;;;;;;;;;;5095592;28;20377;-82
2024/03/29 14:28:51;;;;;;;0.30;0.30;;;;;;;;;;5095496;28;20409;-82
2024/03/29 14:31:17;;;;;;;0.43;0.40;;;;;;;;;;5095454;28;20398;-82
2024/03/29 14:33:44;;;;;;;0.47;0.30;;;;;;;;;;5095812;28;20382;-82
2024/03/29 14:36:10;;;;;;;0.57;0.40;;;;;;;;;;5095521;28;20778;-82
2024/03/29 14:38:36;;;;;;;0.70;0.30;;;;;;;;;;5094515;28;20405;-82
2024/03/29 14:41:02;;;;;;;0.40;0.30;;;;;;;;;;5099195;28;20420;-82
2024/03/29 14:43:28;;;;;;;0.60;0.30;;;;;;;;;;5100046;28;20449;-82
2024/03/29 14:45:55;;;;;;;0.60;0.40;;;;;;;;;;5100475;28;20370;-82